Time;durP1;ratioP1;P1;durP2;ratioP2;P2;SDS_P1;SDS_P2;PMS_P1;PMS_P2;Temp;Humidity;BMP_temperature;BMP_pressure;BME280_temperature;BME280_humidity;BME280_pressure;Samples;Min_cycle;Max_cycle;Signal;HPM_P1;HPM_P2
2021/07/08 00:01:42;;;;;;;;;;;;;;;;;;5071382;28;20313;-64
2021/07/08 00:04:07;;;;;;;;;;;;;;;;;;5072218;28;19916;-65
2021/07/08 00:06:33;;;;;;;;;;;;;;;;;;5071388;28;20007;-65
2021/07/08 00:08:58;;;;;;;;;;;;;;;;;;5072526;28;20347;-65
2021/07/08 00:11:24;;;;;;;;;;;;;;;;;;5071738;28;19916;-66
2021/07/08 00:13:50;;;;;;;;;;;;;;;;;;5072590;28;19966;-65
2021/07/08 00:16:15;;;;;;;;;;;;;;;;;;5073471;28;19992;-65
2021/07/08 00:18:40;;;;;;;;;;;;;;;;;;5071133;28;19920;-65
2021/07/08 00:21:05;;;;;;;;;;;;;;;;;;5071231;28;19916;-65
2021/07/08 00:23:30;;;;;;;;;;;;;;;;;;5072870;28;19962;-65
2021/07/08 00:25:56;;;;;;;;;;;;;;;;;;5071941;28;19966;-65
2021/07/08 00:28:22;;;;;;;;;;;;;;;;;;5070929;28;19920;-66
2021/07/08 00:30:48;;;;;;;;;;;;;;;;;;5071250;28;19929;-66
2021/07/08 00:33:14;;;;;;;;;;;;;;;;;;5070154;28;19927;-65
2021/07/08 00:35:39;;;;;;;;;;;;;;;;;;5071849;28;19917;-65
2021/07/08 00:38:05;;;;;;;;;;;;;;;;;;5070615;28;19974;-65
2021/07/08 00:40:31;;;;;;;;;;;;;;;;;;5071503;28;19961;-65
2021/07/08 00:42:56;;;;;;;;;;;;;;;;;;5071618;28;20015;-65
2021/07/08 00:45:22;;;;;;;;;;;;;;;;;;5072116;28;19918;-65
2021/07/08 00:47:47;;;;;;;;;;;;;;;;;;5071515;28;19924;-65
2021/07/08 00:50:13;;;;;;;;;;;;;;;;;;5070601;28;20430;-65
2021/07/08 00:52:39;;;;;;;;;;;;;;;;;;5071259;28;19916;-65
2021/07/08 00:55:05;;;;;;;;;;;;;;;;;;5070585;28;19916;-65
2021/07/08 00:57:30;;;;;;;;;;;;;;;;;;5070936;28;19916;-65
2021/07/08 00:59:55;;;;;;;;;;;;;;;;;;5071029;28;19951;-65
2021/07/08 01:02:21;;;;;;;;;;;;;;;;;;5069992;28;20375;-65
2021/07/08 01:04:47;;;;;;;;;;;;;;;;;;5070870;28;19917;-64
2021/07/08 01:07:13;;;;;;;;;;;;;;;;;;5070811;28;19932;-65
2021/07/08 01:09:38;;;;;;;;;;;;;;;;;;5070293;28;19989;-66
2021/07/08 01:12:04;;;;;;;;;;;;;;;;;;5070029;28;19923;-64
2021/07/08 01:14:29;;;;;;;;;;;;;;;;;;5071022;28;19909;-66
2021/07/08 01:16:54;;;;;;;;;;;;;;;;;;5070465;28;19916;-66
2021/07/08 01:19:19;;;;;;;;;;;;;;;;;;5070805;28;19969;-65
2021/07/08 01:21:45;;;;;;;;;;;;;;;;;;5070840;28;19928;-66
2021/07/08 01:24:10;;;;;;;;;;;;;;;;;;5071506;28;20007;-66
2021/07/08 01:26:38;;;;;;;;;;;;;;;;;;5069883;28;19932;-66
2021/07/08 01:29:03;;;;;;;;;;;;;;;;;;5070928;28;19932;-66
2021/07/08 01:31:28;;;;;;;;;;;;;;;;;;5070869;28;19924;-66
2021/07/08 01:33:54;;;;;;;;;;;;;;;;;;5069334;28;20003;-65
2021/07/08 01:36:19;;;;;;;;;;;;;;;;;;5070483;28;20003;-65
2021/07/08 01:38:44;;;;;;;;;;;;;;;;;;5070662;28;19963;-65
2021/07/08 01:41:10;;;;;;;;;;;;;;;;;;5070643;28;19916;-65
2021/07/08 01:43:39;;;;;;;;;;;;;;;;;;5070609;28;20378;-65
2021/07/08 01:46:08;;;;;;;;;;;;;;;;;;5070047;28;19916;-64
2021/07/08 01:48:33;;;;;;;;;;;;;;;;;;5070832;28;20037;-65
2021/07/08 01:51:02;;;;;;;;;;;;;;;;;;5069850;28;19954;-65
2021/07/08 01:53:28;;;;;;;;;;;;;;;;;;5073641;28;19924;-65
2021/07/08 01:55:53;;;;;;;;;;;;;;;;;;5070212;28;19920;-65
2021/07/08 01:58:18;;;;;;;;;;;;;;;;;;5070706;28;19935;-65
2021/07/08 02:00:43;;;;;;;;;;;;;;;;;;5069900;28;20053;-66
2021/07/08 02:03:08;;;;;;;;;;;;;;;;;;5070689;28;19939;-66
2021/07/08 02:05:34;;;;;;;;;;;;;;;;;;5069802;28;19952;-65
2021/07/08 02:07:59;;;;;;;;;;;;;;;;;;5069608;28;19927;-64
2021/07/08 02:10:24;;;;;;;;;;;;;;;;;;5070743;28;19916;-65
2021/07/08 02:12:50;;;;;;;;;;;;;;;;;;5069277;28;19920;-65
2021/07/08 02:15:15;;;;;;;;;;;;;;;;;;5075332;28;19977;-65
2021/07/08 02:17:40;;;;;;;;;;;;;;;;;;5090852;28;20376;-65
2021/07/08 02:20:07;;;;;;;;;;;;;;;;;;5074540;28;20273;-65
2021/07/08 02:22:32;;;;;;;;;;;;;;;;;;5070398;28;19916;-64
2021/07/08 02:24:58;;;;;;;;;;;;;;;;;;5070937;28;19989;-65
2021/07/08 02:27:23;;;;;;;;;;;;;;;;;;5073580;28;20336;-66
2021/07/08 02:29:49;;;;;;;;;;;;;;;;;;5073997;28;20392;-65
2021/07/08 02:32:14;;;;;;;;;;;;;;;;;;5073040;28;19925;-65
2021/07/08 02:34:40;;;;;;;;;;;;;;;;;;5072156;28;19916;-65
2021/07/08 02:37:05;;;;;;;;;;;;;;;;;;5071790;28;19916;-65
2021/07/08 02:39:31;;;;;;;;;;;;;;;;;;5072676;28;20016;-65
2021/07/08 02:41:56;;;;;;;;;;;;;;;;;;5073842;28;19966;-66
2021/07/08 02:44:21;;;;;;;;;;;;;;;;;;5074888;28;19920;-64
2021/07/08 02:46:47;;;;;;;;;;;;;;;;;;5073741;28;19916;-66
2021/07/08 02:49:12;;;;;;;;;;;;;;;;;;5073557;28;20428;-65
2021/07/08 02:51:37;;;;;;;;;;;;;;;;;;5073487;28;19916;-66
2021/07/08 02:54:03;;;;;;;;;;;;;;;;;;5073773;28;19921;-65
2021/07/08 02:56:28;;;;;;;;;;;;;;;;;;5074260;28;20547;-65
2021/07/08 02:58:53;;;;;;;;;;;;;;;;;;5073481;28;19948;-65
2021/07/08 03:01:18;;;;;;;;;;;;;;;;;;5072995;28;19917;-65
2021/07/08 03:03:43;;;;;;;;;;;;;;;;;;5073057;28;19916;-65
2021/07/08 03:06:08;;;;;;;;;;;;;;;;;;5073973;28;20333;-65
2021/07/08 03:08:34;;;;;;;;;;;;;;;;;;5071894;28;20028;-65
2021/07/08 03:10:59;;;;;;;;;;;;;;;;;;5074003;28;19919;-65
2021/07/08 03:13:24;;;;;;;;;;;;;;;;;;5073034;28;19924;-65
2021/07/08 03:15:49;;;;;;;;;;;;;;;;;;5073004;28;19916;-65
2021/07/08 03:18:14;;;;;;;;;;;;;;;;;;5062037;28;19916;-65
2021/07/08 03:20:45;;;;;;;;;;;;;;;;;;5073213;28;19916;-66
2021/07/08 03:23:10;;;;;;;;;;;;;;;;;;5073188;28;19923;-65
2021/07/08 03:25:35;;;;;;;;;;;;;;;;;;5072747;28;19955;-64
2021/07/08 03:28:00;;;;;;;;;;;;;;;;;;5073148;28;20398;-65
2021/07/08 03:30:28;;;;;;;;;;;;;;;;;;5072966;28;20036;-66
2021/07/08 03:32:53;;;;;;;;;;;;;;;;;;5072996;28;19920;-65
2021/07/08 03:35:18;;;;;;;;;;;;;;;;;;5072485;28;19924;-66
2021/07/08 03:37:44;;;;;;;;;;;;;;;;;;5072658;28;19956;-66
2021/07/08 03:40:11;;;;;;;;;;;;;;;;;;5071955;28;19927;-65
2021/07/08 03:42:37;;;;;;;;;;;;;;;;;;5072903;28;19983;-65
2021/07/08 03:45:03;;;;;;;;;;;;;;;;;;5072128;28;20346;-65
2021/07/08 03:47:28;;;;;;;;;;;;;;;;;;5072609;28;19920;-65
2021/07/08 03:49:54;;;;;;;;;;;;;;;;;;5073466;28;19980;-65
2021/07/08 03:52:19;;;;;;;;;;;;;;;;;;5073623;28;19963;-65
2021/07/08 03:54:44;;;;;;;;;;;;;;;;;;5072714;28;19920;-65
2021/07/08 03:57:10;;;;;;;;;;;;;;;;;;5074612;28;19924;-65
2021/07/08 03:59:35;;;;;;;;;;;;;;;;;;5052992;28;19995;-66
2021/07/08 04:02:00;;;;;;;;;;;;;;;;;;5068077;28;19923;-65
2021/07/08 04:04:25;;;;;;;;;;;;;;;;;;5072909;28;19919;-65
2021/07/08 04:06:50;;;;;;;;;;;;;;;;;;5073118;28;19914;-65
2021/07/08 04:09:16;;;;;;;;;;;;;;;;;;5072710;28;19917;-65
2021/07/08 04:11:41;;;;;;;;;;;;;;;;;;5074104;28;19948;-65
2021/07/08 04:14:06;;;;;;;;;;;;;;;;;;5093101;28;19922;-64
2021/07/08 04:16:31;;;;;;;;;;;;;;;;;;5085428;28;20306;-64
2021/07/08 04:18:57;;;;;;;;;;;;;;;;;;5071699;28;19920;-65
2021/07/08 04:21:22;;;;;;;;;;;;;;;;;;5070483;28;19960;-65
2021/07/08 04:23:47;;;;;;;;;;;;;;;;;;5071880;28;20026;-65
2021/07/08 04:26:12;;;;;;;;;;;;;;;;;;5071511;28;19959;-65
2021/07/08 04:28:38;;;;;;;;;;;;;;;;;;5062379;28;19974;-66
2021/07/08 04:31:03;;;;;;;;;;;;;;;;;;5071419;28;19920;-65
2021/07/08 04:33:28;;;;;;;;;;;;;;;;;;5071370;28;19916;-65
2021/07/08 04:35:54;;;;;;;;;;;;;;;;;;5071505;28;19923;-65
2021/07/08 04:38:19;;;;;;;;;;;;;;;;;;5070579;28;19993;-65
2021/07/08 04:40:45;;;;;;;;;;;;;;;;;;5071526;28;19920;-64
2021/07/08 04:43:11;;;;;;;;;;;;;;;;;;5071781;28;19935;-65
2021/07/08 04:45:36;;;;;;;;;;;;;;;;;;5072233;28;19982;-65
2021/07/08 04:48:01;;;;;;;;;;;;;;;;;;5070393;28;20345;-64
2021/07/08 04:50:27;;;;;;;;;;;;;;;;;;5071755;28;20394;-65
2021/07/08 04:52:53;;;;;;;;;;;;;;;;;;5070818;28;19927;-65
2021/07/08 04:55:21;;;;;;;;;;;;;;;;;;5071553;28;20003;-65
2021/07/08 04:57:46;;;;;;;;;;;;;;;;;;5070452;28;19924;-65
2021/07/08 05:00:13;;;;;;;;;;;;;;;;;;5071774;28;19919;-66
2021/07/08 05:02:38;;;;;;;;;;;;;;;;;;5069708;28;20011;-65
2021/07/08 05:05:07;;;;;;;;;;;;;;;;;;5070647;28;19924;-65
2021/07/08 05:07:33;;;;;;;;;;;;;;;;;;5070882;28;19995;-64
2021/07/08 05:09:58;;;;;;;;;;;;;;;;;;5071709;28;19970;-66
2021/07/08 05:12:24;;;;;;;;;;;;;;;;;;5070919;28;19916;-65
2021/07/08 05:14:49;;;;;;;;;;;;;;;;;;5070101;28;20334;-65
2021/07/08 05:17:14;;;;;;;;;;;;;;;;;;5069775;28;19946;-64
2021/07/08 05:19:39;;;;;;;;;;;;;;;;;;5071436;28;19912;-65
2021/07/08 05:22:05;;;;;;;;;;;;;;;;;;5064970;28;20397;-65
2021/07/08 05:24:31;;;;;;;;;;;;;;;;;;5051926;28;19928;-64
2021/07/08 05:26:56;;;;;;;;;;;;;;;;;;5063610;28;19932;-64
2021/07/08 05:29:22;;;;;;;;;;;;;;;;;;5070618;28;19920;-64
2021/07/08 05:31:48;;;;;;;;;;;;;;;;;;5070578;28;19971;-64
2021/07/08 05:34:13;;;;;;;;;;;;;;;;;;5070482;28;19924;-67
2021/07/08 05:36:39;;;;;;;;;;;;;;;;;;5070872;28;19920;-65
2021/07/08 05:39:05;;;;;;;;;;;;;;;;;;5070560;28;19917;-64
2021/07/08 05:41:30;;;;;;;;;;;;;;;;;;5071020;28;19952;-65
2021/07/08 05:43:55;;;;;;;;;;;;;;;;;;5069627;28;20308;-64
2021/07/08 05:46:22;;;;;;;;;;;;;;;;;;5070680;28;19982;-66
2021/07/08 05:48:47;;;;;;;;;;;;;;;;;;5069499;28;19928;-63
2021/07/08 05:51:13;;;;;;;;;;;;;;;;;;5069919;28;19928;-65
2021/07/08 05:53:38;;;;;;;;;;;;;;;;;;5070084;28;19968;-65
2021/07/08 05:56:04;;;;;;;;;;;;;;;;;;5071063;28;19917;-64
2021/07/08 05:58:29;;;;;;;;;;;;;;;;;;5070702;28;19916;-64
2021/07/08 06:00:54;;;;;;;;;;;;;;;;;;5071398;28;19916;-65
2021/07/08 06:03:20;;;;;;;;;;;;;;;;;;5070189;28;19955;-66
2021/07/08 06:05:45;;;;;;;;;;;;;;;;;;5069164;28;19916;-65
2021/07/08 06:08:10;;;;;;;;;;;;;;;;;;5069189;28;19920;-64
2021/07/08 06:10:36;;;;;;;;;;;;;;;;;;5070232;28;19938;-65
2021/07/08 06:13:02;;;;;;;;;;;;;;;;;;5070729;28;19920;-65
2021/07/08 06:15:28;;;;;;;;;;;;;;;;;;5071837;28;19916;-65
2021/07/08 06:17:53;;;;;;;;;;;;;;;;;;5071315;28;19947;-65
2021/07/08 06:20:18;;;;;;;;;;;;;;;;;;5069548;28;20379;-66
2021/07/08 06:22:44;;;;;;;;;;;;;;;;;;5071013;28;19973;-66
2021/07/08 06:25:10;;;;;;;;;;;;;;;;;;5070298;28;19948;-64
2021/07/08 06:27:35;;;;;;;;;;;;;;;;;;5068660;28;19923;-66
2021/07/08 06:30:01;;;;;;;;;;;;;;;;;;5070120;28;20340;-66
2021/07/08 06:32:26;;;;;;;;;;;;;;;;;;5059095;28;20410;-66
2021/07/08 06:34:51;;;;;;;;;;;;;;;;;;5071007;28;20389;-66
2021/07/08 06:37:16;;;;;;;;;;;;;;;;;;5068217;28;19955;-61
2021/07/08 06:39:42;;;;;;;;;;;;;;;;;;5070200;28;19916;-63
2021/07/08 06:42:07;;;;;;;;;;;;;;;;;;5070054;28;19917;-64
2021/07/08 06:44:33;;;;;;;;;;;;;;;;;;5062786;28;19920;-64
2021/07/08 06:46:58;;;;;;;;;;;;;;;;;;5050948;28;19995;-63
2021/07/08 06:49:23;;;;;;;;;;;;;;;;;;5057862;28;20293;-65
2021/07/08 06:51:49;;;;;;;;;;;;;;;;;;5070160;28;19916;-64
2021/07/08 06:54:14;;;;;;;;;;;;;;;;;;5070796;28;20019;-63
2021/07/08 06:56:41;;;;;;;;;;;;;;;;;;5069952;28;20415;-63
2021/07/08 06:59:06;;;;;;;;;;;;;;;;;;5062793;28;19931;-63
2021/07/08 07:01:32;;;;;;;;;;;;;;;;;;5066131;28;19912;-64
2021/07/08 07:03:57;;;;;;;;;;;;;;;;;;5069228;28;20432;-63
2021/07/08 07:06:22;;;;;;;;;;;;;;;;;;5056315;28;19924;-64
2021/07/08 07:08:47;;;;;;;;;;;;;;;;;;5065994;28;19920;-62
2021/07/08 07:11:13;;;;;;;;;;;;;;;;;;5071113;28;19955;-64
2021/07/08 07:13:38;;;;;;;;;;;;;;;;;;5073962;28;20385;-64
2021/07/08 07:16:03;;;;;;;;;;;;;;;;;;5074169;28;19970;-65
2021/07/08 07:18:28;;;;;;;;;;;;;;;;;;5073920;28;19912;-63
2021/07/08 07:20:53;;;;;;;;;;;;;;;;;;5073822;28;19919;-65
2021/07/08 07:23:19;;;;;;;;;;;;;;;;;;5073906;28;20244;-65
2021/07/08 07:25:45;;;;;;;;;;;;;;;;;;5073956;28;20403;-64
2021/07/08 07:28:11;;;;;;;;;;;;;;;;;;5073690;28;19917;-65
2021/07/08 07:30:37;;;;;;;;;;;;;;;;;;5073550;28;19912;-65
2021/07/08 07:33:02;;;;;;;;;;;;;;;;;;5073615;28;19955;-64
2021/07/08 07:35:27;;;;;;;;;;;;;;;;;;5073688;28;19912;-64
2021/07/08 07:37:53;;;;;;;;;;;;;;;;;;5073327;28;19951;-65
2021/07/08 07:40:19;;;;;;;;;;;;;;;;;;5073434;28;20303;-66
2021/07/08 07:42:44;;;;;;;;;;;;;;;;;;5073173;28;20287;-64
2021/07/08 07:45:10;;;;;;;;;;;;;;;;;;5073106;28;20401;-65
2021/07/08 07:47:35;;;;;;;;;;;;;;;;;;5072671;28;19912;-64
2021/07/08 07:50:01;;;;;;;;;;;;;;;;;;5071630;28;20309;-64
2021/07/08 07:52:26;;;;;;;;;;;;;;;;;;5070348;28;19924;-64
2021/07/08 07:54:52;;;;;;;;;;;;;;;;;;5080155;28;19919;-64
2021/07/08 07:57:17;;;;;;;;;;;;;;;;;;5074051;28;19939;-65
2021/07/08 07:59:42;;;;;;;;;;;;;;;;;;5075357;28;20382;-63
2021/07/08 08:02:12;;;;;;;;;;;;;;;;;;5070776;28;19917;-64
2021/07/08 08:05:18;;;;;;;;;;;;;;;;;;5078586;28;19962;-63
2021/07/08 08:10:26;;;;;;;;;;;;;;;;;;5085125;28;19924;-63
2021/07/08 08:12:52;;;;;;;;;;;;;;;;;;5071724;28;19916;-63
2021/07/08 08:15:18;;;;;;;;;;;;;;;;;;5068828;28;20365;-62
2021/07/08 08:17:44;;;;;;;;;;;;;;;;;;5051887;28;19924;-61
2021/07/08 08:20:10;;;;;;;;;;;;;;;;;;5056143;28;19943;-64
2021/07/08 08:22:38;;;;;;;;;;;;;;;;;;5071691;28;19917;-63
2021/07/08 08:25:03;;;;;;;;;;;;;;;;;;5074332;28;19919;-61
2021/07/08 08:27:28;;;;;;;;;;;;;;;;;;5070481;28;19916;-65
2021/07/08 08:29:54;;;;;;;;;;;;;;;;;;5060188;28;20402;-65
2021/07/08 08:32:19;;;;;;;;;;;;;;;;;;5067842;28;19916;-62
2021/07/08 08:34:44;;;;;;;;;;;;;;;;;;5071437;28;20267;-63
2021/07/08 08:37:10;;;;;;;;;;;;;;;;;;5071375;28;19924;-64
2021/07/08 08:39:35;;;;;;;;;;;;;;;;;;5063669;28;20271;-64
2021/07/08 08:42:00;;;;;;;;;;;;;;;;;;5070082;28;19917;-64
2021/07/08 08:44:25;;;;;;;;;;;;;;;;;;5070173;28;19923;-63
2021/07/08 08:46:51;;;;;;;;;;;;;;;;;;5066782;28;19917;-63
2021/07/08 08:49:16;;;;;;;;;;;;;;;;;;5062643;28;19931;-64
2021/07/08 08:51:42;;;;;;;;;;;;;;;;;;5071914;28;19959;-63
2021/07/08 08:54:07;;;;;;;;;;;;;;;;;;5070835;28;20007;-65
2021/07/08 08:56:32;;;;;;;;;;;;;;;;;;5071990;28;19913;-64
2021/07/08 08:58:58;;;;;;;;;;;;;;;;;;5064211;28;19970;-65
2021/07/08 09:01:23;;;;;;;;;;;;;;;;;;5069143;28;19932;-64
2021/07/08 09:03:48;;;;;;;;;;;;;;;;;;5070279;28;19924;-64
2021/07/08 09:06:14;;;;;;;;;;;;;;;;;;5070457;28;19950;-64
2021/07/08 09:08:39;;;;;;;;;;;;;;;;;;5069946;28;19974;-63
2021/07/08 09:11:06;;;;;;;;;;;;;;;;;;5070667;28;19912;-63
2021/07/08 09:13:50;;;;;;;;;;;;;;;;;;5070469;28;19924;-63
2021/07/08 09:16:18;;;;;;;;;;;;;;;;;;5070878;28;19916;-62
2021/07/08 09:18:44;;;;;;;;;;;;;;;;;;5070940;28;20354;-63
2021/07/08 09:21:19;;;;;;;;;;;;;;;;;;5067606;28;21230;-64
2021/07/08 09:24:02;;;;;;;;;;;;;;;;;;5067029;28;19929;-64
2021/07/08 09:26:27;;;;;;;;;;;;;;;;;;5071506;28;19919;-63
2021/07/08 09:29:03;;;;;;;;;;;;;;;;;;5071001;28;19916;-63
2021/07/08 09:31:29;;;;;;;;;;;;;;;;;;5071659;28;19913;-63
2021/07/08 09:33:54;;;;;;;;;;;;;;;;;;5071225;28;20279;-63
2021/07/08 09:36:19;;;;;;;;;;;;;;;;;;5071046;28;19916;-63
2021/07/08 09:38:46;;;;;;;;;;;;;;;;;;5070897;28;19919;-63
2021/07/08 09:41:17;;;;;;;;;;;;;;;;;;5070923;28;19913;-63
2021/07/08 09:43:42;;;;;;;;;;;;;;;;;;5071388;28;19913;-62
2021/07/08 09:46:08;;;;;;;;;;;;;;;;;;5070123;28;19962;-64
2021/07/08 09:48:34;;;;;;;;;;;;;;;;;;5070972;28;19928;-62
2021/07/08 09:50:59;;;;;;;;;;;;;;;;;;5070694;28;19913;-62
2021/07/08 09:53:25;;;;;;;;;;;;;;;;;;5071500;28;19917;-64
2021/07/08 09:59:08;;;;;;;;;;;;;;;;;;5051564;28;19912;-64
2021/07/08 10:01:33;;;;;;;;;;;;;;;;;;5068834;28;19931;-63
2021/07/08 10:03:59;;;;;;;;;;;;;;;;;;5070851;28;19935;-63
2021/07/08 10:06:24;;;;;;;;;;;;;;;;;;5071369;28;20012;-63
2021/07/08 10:08:51;;;;;;;;;;;;;;;;;;5070352;28;20306;-64
2021/07/08 10:11:19;;;;;;;;;;;;;;;;;;5071331;28;19958;-63
2021/07/08 10:13:44;;;;;;;;;;;;;;;;;;5070486;28;20247;-64
2021/07/08 10:16:10;;;;;;;;;;;;;;;;;;5071030;28;20011;-64
2021/07/08 10:18:40;;;;;;;;;;;;;;;;;;5070684;28;19920;-64
2021/07/08 10:21:06;;;;;;;;;;;;;;;;;;5070716;28;19920;-63
2021/07/08 10:23:34;;;;;;;;;;;;;;;;;;5070455;28;19912;-64
2021/07/08 10:26:00;;;;;;;;;;;;;;;;;;5071870;28;19996;-63
2021/07/08 10:28:26;;;;;;;;;;;;;;;;;;5071488;28;19940;-64
2021/07/08 10:30:52;;;;;;;;;;;;;;;;;;5070892;28;19916;-63
2021/07/08 10:33:18;;;;;;;;;;;;;;;;;;5070503;28;20176;-64
2021/07/08 10:35:44;;;;;;;;;;;;;;;;;;5070552;28;19959;-62
2021/07/08 10:38:39;;;;;;;;;;;;;;;;;;5070586;28;19978;-64
2021/07/08 10:41:07;;;;;;;;;;;;;;;;;;5057146;28;19925;-62
2021/07/08 10:43:34;;;;;;;;;;;;;;;;;;5070296;28;19913;-64
2021/07/08 10:46:01;;;;;;;;;;;;;;;;;;5070780;28;19924;-64
2021/07/08 10:48:36;;;;;;;;;;;;;;;;;;5074117;28;19924;-64
2021/07/08 10:51:01;;;;;;;;;;;;;;;;;;5074305;28;20386;-64
2021/07/08 10:53:32;;;;;;;;;;;;;;;;;;5073867;28;19946;-63
2021/07/08 10:55:57;;;;;;;;;;;;;;;;;;5074393;28;20298;-64
2021/07/08 10:58:39;;;;;;;;;;;;;;;;;;5073820;28;19940;-63
2021/07/08 11:01:05;;;;;;;;;;;;;;;;;;5074381;28;19920;-62
2021/07/08 11:03:38;;;;;;;;;;;;;;;;;;5074144;28;20082;-64
2021/07/08 11:06:29;;;;;;;;;;;;;;;;;;5073799;28;19932;-64
2021/07/08 11:08:57;;;;;;;;;;;;;;;;;;5070387;28;20305;-64
2021/07/08 11:11:22;;;;;;;;;;;;;;;;;;5074238;28;19912;-64
2021/07/08 11:13:51;;;;;;;;;;;;;;;;;;5073797;28;19939;-62
2021/07/08 11:16:35;;;;;;;;;;;;;;;;;;5073471;28;20341;-64
2021/07/08 11:19:01;;;;;;;;;;;;;;;;;;5073275;28;20006;-64
2021/07/08 11:21:45;;;;;;;;;;;;;;;;;;5073940;28;19963;-62
2021/07/08 11:24:17;;;;;;;;;;;;;;;;;;5074052;28;19912;-64
2021/07/08 11:27:02;;;;;;;;;;;;;;;;;;5073640;28;19999;-64
2021/07/08 11:29:34;;;;;;;;;;;;;;;;;;5073334;28;19916;-64
2021/07/08 11:31:59;;;;;;;;;;;;;;;;;;5074099;28;19912;-64
2021/07/08 11:34:26;;;;;;;;;;;;;;;;;;5073563;28;19913;-64
2021/07/08 11:36:52;;;;;;;;;;;;;;;;;;5069085;28;19924;-63
2021/07/08 11:39:18;;;;;;;;;;;;;;;;;;5071148;28;19955;-63
2021/07/08 11:41:43;;;;;;;;;;;;;;;;;;5071977;28;20524;-62
2021/07/08 11:44:10;;;;;;;;;;;;;;;;;;5072547;28;19917;-62
2021/07/08 11:46:36;;;;;;;;;;;;;;;;;;5067254;28;19939;-61
2021/07/08 11:49:02;;;;;;;;;;;;;;;;;;5070256;28;20362;-63
2021/07/08 11:51:32;;;;;;;;;;;;;;;;;;5072331;28;19916;-63
2021/07/08 11:53:57;;;;;;;;;;;;;;;;;;5072164;28;19916;-63
2021/07/08 11:56:24;;;;;;;;;;;;;;;;;;5071143;28;20321;-63
2021/07/08 11:58:49;;;;;;;;;;;;;;;;;;5069658;28;20378;-63
2021/07/08 12:01:17;;;;;;;;;;;;;;;;;;5070101;28;19970;-64
2021/07/08 12:03:44;;;;;;;;;;;;;;;;;;5066084;28;19916;-64
2021/07/08 12:06:09;;;;;;;;;;;;;;;;;;5075125;28;19923;-64
2021/07/08 12:08:51;;;;;;;;;;;;;;;;;;5070281;28;19924;-64
2021/07/08 12:11:19;;;;;;;;;;;;;;;;;;5069683;28;19974;-64
2021/07/08 12:13:45;;;;;;;;;;;;;;;;;;5071946;28;19923;-63
2021/07/08 12:16:10;;;;;;;;;;;;;;;;;;5072744;28;19912;-64
2021/07/08 12:18:39;;;;;;;;;;;;;;;;;;5071662;28;19916;-64
2021/07/08 12:21:15;;;;;;;;;;;;;;;;;;5071615;28;20081;-64
2021/07/08 12:23:40;;;;;;;;;;;;;;;;;;5057087;28;19925;-64
2021/07/08 12:26:19;;;;;;;;;;;;;;;;;;5070996;28;20004;-64
2021/07/08 12:28:44;;;;;;;;;;;;;;;;;;5070306;28;19924;-64
2021/07/08 12:31:09;;;;;;;;;;;;;;;;;;5071175;28;19962;-64
2021/07/08 12:33:35;;;;;;;;;;;;;;;;;;5071616;28;19916;-63
2021/07/08 12:36:00;;;;;;;;;;;;;;;;;;5074670;28;20388;-63
2021/07/08 12:38:25;;;;;;;;;;;;;;;;;;5070261;28;19912;-63
2021/07/08 12:40:59;;;;;;;;;;;;;;;;;;5072132;28;19976;-63
2021/07/08 12:43:26;;;;;;;;;;;;;;;;;;5068657;28;19928;-63
2021/07/08 12:45:51;;;;;;;;;;;;;;;;;;5051854;28;19913;-65
2021/07/08 12:48:16;;;;;;;;;;;;;;;;;;5059954;28;20062;-64
2021/07/08 12:50:43;;;;;;;;;;;;;;;;;;5051493;28;20390;-65
2021/07/08 12:53:10;;;;;;;;;;;;;;;;;;5051985;28;19913;-64
2021/07/08 12:55:36;;;;;;;;;;;;;;;;;;5052146;28;19934;-64
2021/07/08 12:58:09;;;;;;;;;;;;;;;;;;5051488;28;20016;-65
2021/07/08 13:00:35;;;;;;;;;;;;;;;;;;5062262;28;19923;-65
2021/07/08 13:03:00;;;;;;;;;;;;;;;;;;5074972;28;19917;-61
2021/07/08 13:05:41;;;;;;;;;;;;;;;;;;5071831;28;20386;-64
2021/07/08 13:08:10;;;;;;;;;;;;;;;;;;5082899;28;19923;-63
2021/07/08 13:10:37;;;;;;;;;;;;;;;;;;5067918;28;20189;-63
2021/07/08 13:13:02;;;;;;;;;;;;;;;;;;5070935;28;19916;-63
2021/07/08 13:15:27;;;;;;;;;;;;;;;;;;5070721;28;20305;-63
2021/07/08 13:18:09;;;;;;;;;;;;;;;;;;5071513;28;20396;-62
2021/07/08 13:20:35;;;;;;;;;;;;;;;;;;5071333;28;20401;-62
2021/07/08 13:23:17;;;;;;;;;;;;;;;;;;5071623;28;19916;-62
2021/07/08 13:25:43;;;;;;;;;;;;;;;;;;5071958;28;19912;-62
2021/07/08 13:28:19;;;;;;;;;;;;;;;;;;5072031;28;20367;-62
2021/07/08 13:30:45;;;;;;;;;;;;;;;;;;5071403;28;19917;-61
2021/07/08 13:33:11;;;;;;;;;;;;;;;;;;5071786;28;20374;-61
2021/07/08 13:35:36;;;;;;;;;;;;;;;;;;5071648;28;19912;-62
2021/07/08 13:38:16;;;;;;;;;;;;;;;;;;5072102;28;20336;-62
2021/07/08 13:41:02;;;;;;;;;;;;;;;;;;5070547;28;20334;-62
2021/07/08 13:43:44;;;;;;;;;;;;;;;;;;5070281;28;20386;-62
2021/07/08 13:46:11;;;;;;;;;;;;;;;;;;5069912;28;19916;-62
2021/07/08 13:48:37;;;;;;;;;;;;;;;;;;5070006;28;19920;-60
2021/07/08 13:51:04;;;;;;;;;;;;;;;;;;5069254;28;19920;-62
2021/07/08 13:53:29;;;;;;;;;;;;;;;;;;5070544;28;19959;-65
2021/07/08 13:55:54;;;;;;;;;;;;;;;;;;5070135;28;20002;-70
2021/07/08 13:58:19;;;;;;;;;;;;;;;;;;5070862;28;20303;-66
2021/07/08 14:00:45;;;;;;;;;;;;;;;;;;5069928;28;19973;-67
2021/07/08 14:03:10;;;;;;;;;;;;;;;;;;5068629;28;19999;-65
2021/07/08 14:05:35;;;;;;;;;;;;;;;;;;5072780;28;19923;-66
2021/07/08 14:08:00;;;;;;;;;;;;;;;;;;5069453;28;19948;-65
2021/07/08 14:10:25;;;;;;;;;;;;;;;;;;5070059;28;19939;-68
2021/07/08 14:12:50;;;;;;;;;;;;;;;;;;5069882;28;19916;-66
2021/07/08 14:15:16;;;;;;;;;;;;;;;;;;5070308;28;19916;-67
2021/07/08 14:17:41;;;;;;;;;;;;;;;;;;5070291;28;20406;-68
2021/07/08 14:20:06;;;;;;;;;;;;;;;;;;5069609;28;20007;-68
2021/07/08 14:22:32;;;;;;;;;;;;;;;;;;5076860;28;19969;-68
2021/07/08 14:24:57;;;;;;;;;;;;;;;;;;5062452;28;20397;-66
2021/07/08 14:27:22;;;;;;;;;;;;;;;;;;5057112;28;20295;-68
2021/07/08 14:29:47;;;;;;;;;;;;;;;;;;5069840;28;19961;-68
2021/07/08 14:32:12;;;;;;;;;;;;;;;;;;5077067;28;19917;-68
2021/07/08 14:34:38;;;;;;;;;;;;;;;;;;5076059;28;20015;-65
2021/07/08 14:37:04;;;;;;;;;;;;;;;;;;5074806;28;19924;-65
2021/07/08 14:39:29;;;;;;;;;;;;;;;;;;5079288;28;19919;-68
2021/07/08 14:42:01;;;;;;;;;;;;;;;;;;5077609;28;19931;-67
2021/07/08 14:44:32;;;;;;;;;;;;;;;;;;5078494;28;19923;-70
2021/07/08 14:46:58;;;;;;;;;;;;;;;;;;5076555;28;20003;-70
2021/07/08 14:49:26;;;;;;;;;;;;;;;;;;5073296;28;20011;-67
2021/07/08 14:51:52;;;;;;;;;;;;;;;;;;5077621;28;19916;-69
2021/07/08 14:54:17;;;;;;;;;;;;;;;;;;5077199;28;20344;-68
2021/07/08 14:56:42;;;;;;;;;;;;;;;;;;5077348;28;19963;-68
2021/07/08 14:59:07;;;;;;;;;;;;;;;;;;5076909;28;19916;-68
2021/07/08 15:01:33;;;;;;;;;;;;;;;;;;5077123;28;20370;-67
2021/07/08 15:03:58;;;;;;;;;;;;;;;;;;5077417;28;19919;-68
2021/07/08 15:06:23;;;;;;;;;;;;;;;;;;5077383;28;20336;-68
2021/07/08 15:08:49;;;;;;;;;;;;;;;;;;5077352;28;19920;-67
2021/07/08 15:11:14;;;;;;;;;;;;;;;;;;5077373;28;19970;-68
2021/07/08 15:13:39;;;;;;;;;;;;;;;;;;5077300;28;19955;-68
2021/07/08 15:16:09;;;;;;;;;;;;;;;;;;5077218;28;20256;-68
2021/07/08 15:18:35;;;;;;;;;;;;;;;;;;5077352;28;19923;-67
2021/07/08 15:21:00;;;;;;;;;;;;;;;;;;5077432;28;19912;-69
2021/07/08 15:23:25;;;;;;;;;;;;;;;;;;5077337;28;19912;-68
2021/07/08 15:25:51;;;;;;;;;;;;;;;;;;5077258;28;19916;-69
2021/07/08 15:28:17;;;;;;;;;;;;;;;;;;5077023;28;19923;-68
2021/07/08 15:30:42;;;;;;;;;;;;;;;;;;5076976;28;19917;-68
2021/07/08 15:33:07;;;;;;;;;;;;;;;;;;5074577;28;19919;-68
2021/07/08 15:35:33;;;;;;;;;;;;;;;;;;5074037;28;19917;-69
2021/07/08 15:37:58;;;;;;;;;;;;;;;;;;5073765;28;19912;-67
2021/07/08 15:40:24;;;;;;;;;;;;;;;;;;5074108;28;19916;-68
2021/07/08 15:42:49;;;;;;;;;;;;;;;;;;5072578;28;19913;-68
2021/07/08 15:45:14;;;;;;;;;;;;;;;;;;5074065;28;19973;-68
2021/07/08 15:47:39;;;;;;;;;;;;;;;;;;5073729;28;19912;-67
2021/07/08 15:50:05;;;;;;;;;;;;;;;;;;5074016;28;19916;-68
2021/07/08 15:52:30;;;;;;;;;;;;;;;;;;5073840;28;19919;-68
2021/07/08 15:54:56;;;;;;;;;;;;;;;;;;5073725;28;19912;-68
2021/07/08 15:57:21;;;;;;;;;;;;;;;;;;5068307;28;19916;-65
2021/07/08 15:59:46;;;;;;;;;;;;;;;;;;5072039;28;19916;-64
2021/07/08 16:02:12;;;;;;;;;;;;;;;;;;5069878;28;19917;-65
2021/07/08 16:04:38;;;;;;;;;;;;;;;;;;5068431;28;19916;-66
2021/07/08 16:07:04;;;;;;;;;;;;;;;;;;5070136;28;19916;-65
2021/07/08 16:09:29;;;;;;;;;;;;;;;;;;5072897;28;19916;-65
2021/07/08 16:11:54;;;;;;;;;;;;;;;;;;5072036;28;20025;-66
2021/07/08 16:14:19;;;;;;;;;;;;;;;;;;5072374;28;19917;-67
2021/07/08 16:16:45;;;;;;;;;;;;;;;;;;5072963;28;20406;-65
2021/07/08 16:19:10;;;;;;;;;;;;;;;;;;5072930;28;19936;-66
2021/07/08 16:21:35;;;;;;;;;;;;;;;;;;5071908;28;19917;-63
2021/07/08 16:24:01;;;;;;;;;;;;;;;;;;5072388;28;19995;-65
2021/07/08 16:26:26;;;;;;;;;;;;;;;;;;5063967;28;20289;-66
2021/07/08 16:28:51;;;;;;;;;;;;;;;;;;5068879;28;19942;-66
2021/07/08 16:31:20;;;;;;;;;;;;;;;;;;5064363;28;19912;-66
2021/07/08 16:33:45;;;;;;;;;;;;;;;;;;5061990;28;19917;-65
2021/07/08 16:38:38;;;;;;;;;;;;;;;;;;5049874;28;19929;-65
2021/07/08 16:41:04;;;;;;;;;;;;;;;;;;5043238;28;19931;-61
2021/07/08 16:43:30;;;;;;;;;;;;;;;;;;5050488;28;20003;-66
2021/07/08 16:45:56;;;;;;;;;;;;;;;;;;5047825;28;19916;-62
2021/07/08 16:48:21;;;;;;;;;;;;;;;;;;5039427;28;20048;-64
2021/07/08 16:50:47;;;;;;;;;;;;;;;;;;5051292;28;19916;-64